createdAt,value
2023-05-01T00:02:05.481Z,100.00
2023-05-01T00:04:35.524Z,100.00
2023-05-01T00:07:05.428Z,100.00
2023-05-01T00:09:34.514Z,100.00
2023-05-01T00:12:05.718Z,100.00
2023-05-01T00:14:35.554Z,100.00
2023-05-01T00:17:04.721Z,100.00
2023-05-01T00:19:33.836Z,100.00
2023-05-01T00:22:03.734Z,100.00
2023-05-01T00:24:32.984Z,99.06
2023-05-01T00:27:08.008Z,95.34
2023-05-01T00:29:37.703Z,88.59
2023-05-01T00:32:11.581Z,87.07
2023-05-01T00:34:40.854Z,86.89
2023-05-01T00:37:10.347Z,86.44
2023-05-01T00:39:39.895Z,85.97
2023-05-01T00:42:10.384Z,86.04
2023-05-01T00:44:39.722Z,85.58
2023-05-01T00:47:08.975Z,87.63
2023-05-01T00:49:43.379Z,89.97
2023-05-01T00:52:13.337Z,93.32
2023-05-01T00:54:52.208Z,95.58
2023-05-01T00:57:23.220Z,100.00
2023-05-01T00:59:53.644Z,100.00
2023-05-01T01:02:24.526Z,100.00
2023-05-01T01:04:54.115Z,100.00
2023-05-01T01:07:31.261Z,100.00
2023-05-01T01:10:15.434Z,100.00
2023-05-01T01:12:54.718Z,100.00
2023-05-01T01:15:35.628Z,100.00
2023-05-01T01:18:11.859Z,100.00
2023-05-01T01:20:51.655Z,100.00
2023-05-01T01:23:54.590Z,100.00
2023-05-01T01:26:43.188Z,100.00
2023-05-01T01:29:45.279Z,100.00
2023-05-01T01:32:41.266Z,100.00
2023-05-01T01:35:18.176Z,100.00
2023-05-01T01:37:53.346Z,100.00
2023-05-01T01:40:28.850Z,100.00
2023-05-01T01:43:04.610Z,100.00
2023-05-01T01:45:41.244Z,100.00
2023-05-01T01:48:12.878Z,100.00
2023-05-01T01:50:45.123Z,100.00
2023-05-01T01:53:19.874Z,100.00
2023-05-01T01:55:57.946Z,100.00
2023-05-01T01:58:29.912Z,100.00
2023-05-01T02:01:02.477Z,100.00
2023-05-01T02:03:34.127Z,100.00
2023-05-01T02:06:07.472Z,100.00
2023-05-01T02:08:38.611Z,100.00
2023-05-01T02:11:08.868Z,100.00
2023-05-01T02:13:41.685Z,100.00
2023-05-01T02:16:14.611Z,100.00
2023-05-01T02:18:47.458Z,100.00
2023-05-01T02:21:23.095Z,100.00
2023-05-01T02:23:55.584Z,100.00
2023-05-01T02:26:28.072Z,100.00
2023-05-01T02:28:57.592Z,100.00
2023-05-01T02:31:26.797Z,100.00
2023-05-01T02:33:56.890Z,100.00
2023-05-01T02:36:28.133Z,100.00
2023-05-01T02:38:58.065Z,100.00
2023-05-01T02:41:28.645Z,100.00
2023-05-01T02:44:04.712Z,100.00
2023-05-01T02:46:42.282Z,100.00
2023-05-01T02:49:15.401Z,100.00
2023-05-01T02:51:50.450Z,100.00
2023-05-01T02:54:19.982Z,100.00
2023-05-01T02:56:49.592Z,100.00
2023-05-01T02:59:19.176Z,100.00
2023-05-01T03:01:48.753Z,100.00
2023-05-01T03:04:18.467Z,100.00
2023-05-01T03:06:49.635Z,100.00
2023-05-01T03:09:22.196Z,100.00
2023-05-01T03:11:51.639Z,100.00
2023-05-01T03:14:21.221Z,100.00
2023-05-01T03:16:51.026Z,100.00
2023-05-01T03:19:20.253Z,100.00
2023-05-01T03:21:50.878Z,100.00
2023-05-01T03:24:20.354Z,100.00
2023-05-01T03:26:52.113Z,100.00
2023-05-01T03:29:21.698Z,100.00
2023-05-01T03:31:52.271Z,100.00
2023-05-01T03:34:22.799Z,100.00
2023-05-01T03:36:53.982Z,100.00
2023-05-01T03:39:26.690Z,100.00
2023-05-01T03:42:17.611Z,100.00
2023-05-01T03:44:48.049Z,100.00
2023-05-01T03:47:18.179Z,100.00
2023-05-01T03:49:47.613Z,100.00
2023-05-01T03:52:18.395Z,100.00
2023-05-01T03:54:48.423Z,100.00
2023-05-01T03:57:29.091Z,100.00
2023-05-01T03:59:59.587Z,100.00
2023-05-01T04:02:29.353Z,100.00
2023-05-01T04:04:59.134Z,100.00
2023-05-01T04:07:30.211Z,100.00
2023-05-01T04:09:59.813Z,100.00
2023-05-01T04:12:29.429Z,100.00
2023-05-01T04:14:58.765Z,100.00
2023-05-01T04:17:28.872Z,100.00
2023-05-01T04:19:58.620Z,100.00
2023-05-01T04:22:32.632Z,100.00
2023-05-01T04:25:02.530Z,100.00
2023-05-01T04:27:32.025Z,100.00
2023-05-01T04:30:01.356Z,100.00
2023-05-01T04:32:32.539Z,100.00
2023-05-01T04:35:02.219Z,100.00
2023-05-01T04:37:36.328Z,100.00
2023-05-01T04:40:11.760Z,100.00
2023-05-01T04:42:44.938Z,100.00
2023-05-01T04:45:16.895Z,100.00
2023-05-01T04:47:46.511Z,100.00
2023-05-01T04:50:16.300Z,100.00
2023-05-01T04:52:49.599Z,100.00
2023-05-01T04:55:23.608Z,100.00
2023-05-01T04:58:06.135Z,100.00
2023-05-01T05:01:19.585Z,100.00
2023-05-01T05:03:50.346Z,100.00
2023-05-01T05:06:21.297Z,97.16
2023-05-01T05:08:52.244Z,95.03
2023-05-01T05:11:22.112Z,90.76
2023-05-01T05:14:07.347Z,89.93
2023-05-01T05:16:36.738Z,87.46
2023-05-01T05:19:06.191Z,85.01
2023-05-01T05:21:39.587Z,83.19
2023-05-01T05:24:13.042Z,82.52
2023-05-01T05:26:42.408Z,80.23
2023-05-01T05:29:28.437Z,79.97
2023-05-01T05:31:59.841Z,79.51
2023-05-01T05:34:31.064Z,77.05
2023-05-01T05:37:10.885Z,75.84
2023-05-01T05:39:49.868Z,73.85
2023-05-01T05:42:22.334Z,71.15
2023-05-01T05:44:52.462Z,69.99
2023-05-01T05:47:22.065Z,68.07
2023-05-01T05:50:11.509Z,67.10
2023-05-01T05:52:41.858Z,65.86
2023-05-01T05:55:12.892Z,64.43
2023-05-01T05:57:46.871Z,62.67
2023-05-01T06:00:17.821Z,61.83
2023-05-01T06:02:51.636Z,60.58
2023-05-01T06:05:24.571Z,60.01
2023-05-01T06:07:58.044Z,58.21
2023-05-01T06:10:29.237Z,58.15
2023-05-01T06:13:11.800Z,57.07
2023-05-01T06:15:47.733Z,56.58
2023-05-01T06:18:18.381Z,55.50
2023-05-01T06:20:48.969Z,55.54
2023-05-01T06:23:19.472Z,55.40
2023-05-01T06:25:59.811Z,55.48
2023-05-01T06:28:29.730Z,55.47
2023-05-01T06:31:14.092Z,52.49
2023-05-01T06:33:57.874Z,51.59
2023-05-01T06:36:50.956Z,50.30
2023-05-01T06:39:20.474Z,50.29
2023-05-01T06:41:58.127Z,49.99
2023-05-01T06:47:49.338Z,47.48
2023-05-01T06:50:22.300Z,47.74
2023-05-01T06:52:51.790Z,47.66
2023-05-01T06:55:22.478Z,47.63
2023-05-01T06:58:16.020Z,47.45
2023-05-01T07:01:02.809Z,45.54
2023-05-01T07:03:38.048Z,45.27
2023-05-01T07:06:48.500Z,44.06
2023-05-01T07:09:28.740Z,42.17
2023-05-01T07:12:00.069Z,41.87
2023-05-01T07:14:31.420Z,41.07
2023-05-01T07:17:05.871Z,42.19
2023-05-01T07:19:50.003Z,42.10
2023-05-01T07:22:19.407Z,41.83
2023-05-01T07:25:16.068Z,40.52
2023-05-01T07:28:19.231Z,40.71
2023-05-01T07:31:27.643Z,40.58
2023-05-01T07:34:20.600Z,40.33
2023-05-01T07:37:34.962Z,40.55
2023-05-01T07:40:10.939Z,40.55
2023-05-01T07:42:40.833Z,40.14
2023-05-01T07:45:11.659Z,42.11
2023-05-01T07:47:43.150Z,42.57
2023-05-01T07:50:13.870Z,42.80
2023-05-01T07:52:43.543Z,43.15
2023-05-01T07:55:13.690Z,42.51
2023-05-01T07:57:43.581Z,42.49
2023-05-01T08:00:14.111Z,42.39
2023-05-01T08:02:45.821Z,41.71
2023-05-01T08:05:16.250Z,42.38
2023-05-01T08:07:46.748Z,42.44
2023-05-01T08:10:16.565Z,41.99
2023-05-01T08:12:46.043Z,41.70
2023-05-01T08:15:16.084Z,41.87
2023-05-01T08:17:48.108Z,42.26
2023-05-01T08:20:17.576Z,41.45
2023-05-01T08:22:47.257Z,40.45
2023-05-01T08:25:17.250Z,39.59
2023-05-01T08:27:47.094Z,39.50
2023-05-01T08:30:18.999Z,39.76
2023-05-01T08:32:49.754Z,40.13
2023-05-01T08:35:22.308Z,40.81
2023-05-01T08:37:52.940Z,39.73
2023-05-01T08:40:27.542Z,40.09
2023-05-01T08:42:59.059Z,39.73
2023-05-01T08:45:35.361Z,38.49
2023-05-01T08:48:11.312Z,38.66
2023-05-01T08:50:42.530Z,38.66
2023-05-01T08:53:15.481Z,39.01
2023-05-01T08:55:47.366Z,38.64
2023-05-01T08:58:20.481Z,39.19
2023-05-01T09:00:50.687Z,38.14
2023-05-01T09:03:22.437Z,38.17
2023-05-01T09:05:55.737Z,37.56
2023-05-01T09:08:25.489Z,36.82
2023-05-01T09:10:58.071Z,37.07
2023-05-01T09:13:27.814Z,37.69
2023-05-01T09:16:00.606Z,37.08
2023-05-01T09:18:31.932Z,38.10
2023-05-01T09:21:01.490Z,38.03
2023-05-01T09:23:31.377Z,37.27
2023-05-01T09:26:06.116Z,37.45
2023-05-01T09:28:43.106Z,37.02
2023-05-01T09:31:28.825Z,36.89
2023-05-01T09:34:01.512Z,35.61
2023-05-01T09:36:32.871Z,36.66
2023-05-01T09:39:03.734Z,35.68
2023-05-01T09:41:36.580Z,35.83
2023-05-01T09:44:05.866Z,35.44
2023-05-01T09:46:43.944Z,35.28
2023-05-01T09:49:15.162Z,35.26
2023-05-01T09:51:44.878Z,34.62
2023-05-01T09:54:21.244Z,35.02
2023-05-01T09:56:51.675Z,36.11
2023-05-01T09:59:22.731Z,35.84
2023-05-01T10:01:52.640Z,35.26
2023-05-01T10:04:33.303Z,34.74
2023-05-01T10:07:18.741Z,34.60
2023-05-01T10:09:48.230Z,34.88
2023-05-01T10:12:26.638Z,35.06
2023-05-01T10:14:58.373Z,36.21
2023-05-01T10:17:27.928Z,35.38
2023-05-01T10:19:59.093Z,29.18
2023-05-01T10:22:29.221Z,29.70
2023-05-01T10:24:59.936Z,28.39
2023-05-01T10:27:29.661Z,27.43
2023-05-01T10:30:05.007Z,26.71
2023-05-01T10:32:41.682Z,25.52
2023-05-01T10:35:17.931Z,25.58
2023-05-01T10:37:53.720Z,24.45
2023-05-01T10:40:51.823Z,25.77
2023-05-01T10:43:28.784Z,23.16
2023-05-01T10:46:30.252Z,22.52
2023-05-01T10:48:59.989Z,23.29
2023-05-01T10:51:31.599Z,24.06
2023-05-01T10:54:29.259Z,23.07
2023-05-01T10:57:00.205Z,22.32
2023-05-01T10:59:50.037Z,20.56
2023-05-01T11:02:26.868Z,21.07
2023-05-01T11:04:57.012Z,21.04
2023-05-01T11:07:29.001Z,22.67
2023-05-01T11:12:56.625Z,20.57
2023-05-01T11:15:34.302Z,22.56
2023-05-01T11:18:06.639Z,20.02
2023-05-01T11:20:51.093Z,22.13
2023-05-01T11:23:25.960Z,20.73
2023-05-01T11:26:08.520Z,20.81
2023-05-01T11:28:40.888Z,22.09
2023-05-01T11:31:11.694Z,21.37
2023-05-01T11:33:41.266Z,21.43
2023-05-01T11:36:10.539Z,20.16
2023-05-01T11:38:51.548Z,19.44
2023-05-01T11:41:22.592Z,19.13
2023-05-01T11:43:53.293Z,18.52
2023-05-01T11:46:27.735Z,19.41
2023-05-01T11:48:58.122Z,18.80
2023-05-01T11:51:28.334Z,18.41
2023-05-01T11:54:03.542Z,18.06
2023-05-01T11:56:35.305Z,19.73
2023-05-01T11:59:12.814Z,20.25
2023-05-01T12:01:45.974Z,19.61
2023-05-01T12:04:26.123Z,19.11
2023-05-01T12:06:56.868Z,18.16
2023-05-01T12:09:28.109Z,16.65
2023-05-01T12:11:59.837Z,17.22
2023-05-01T12:14:34.976Z,17.29
2023-05-01T12:17:09.945Z,18.49
2023-05-01T12:19:52.462Z,17.08
2023-05-01T12:22:25.033Z,17.01
2023-05-01T12:24:58.174Z,18.32
2023-05-01T12:27:28.128Z,17.11
2023-05-01T12:29:57.334Z,17.52
2023-05-01T12:32:34.113Z,17.27
2023-05-01T12:35:14.584Z,16.63
2023-05-01T12:37:43.927Z,17.18
2023-05-01T12:40:16.375Z,16.34
2023-05-01T12:42:46.027Z,16.36
2023-05-01T12:45:15.828Z,17.20
2023-05-01T12:47:44.862Z,17.02
2023-05-01T12:50:14.076Z,16.16
2023-05-01T12:52:43.685Z,17.27
2023-05-01T12:55:12.955Z,18.06
2023-05-01T12:57:55.012Z,18.13
2023-05-01T13:00:29.404Z,18.15
2023-05-01T13:03:06.417Z,17.61
2023-05-01T13:05:36.183Z,17.82
2023-05-01T13:08:06.234Z,18.83
2023-05-01T13:10:36.577Z,17.37
2023-05-01T13:13:07.389Z,18.31
2023-05-01T13:15:37.609Z,17.76
2023-05-01T13:18:07.712Z,17.96
2023-05-01T13:20:39.177Z,17.54
2023-05-01T13:23:12.564Z,16.59
2023-05-01T13:25:41.807Z,17.12
2023-05-01T13:28:18.509Z,16.80
2023-05-01T13:30:48.113Z,16.37
2023-05-01T13:33:17.558Z,16.17
2023-05-01T13:35:47.126Z,15.79
2023-05-01T13:38:23.381Z,16.64
2023-05-01T13:40:52.548Z,16.88
2023-05-01T13:43:24.058Z,16.04
2023-05-01T13:45:58.984Z,16.46
2023-05-01T13:48:28.373Z,17.36
2023-05-01T13:50:57.489Z,16.80
2023-05-01T13:53:26.674Z,17.23
2023-05-01T13:55:56.497Z,16.81
2023-05-01T13:58:29.650Z,17.24
2023-05-01T14:00:58.938Z,16.84
2023-05-01T14:03:28.581Z,16.91
2023-05-01T14:05:58.036Z,16.97
2023-05-01T14:08:29.790Z,18.08
2023-05-01T14:11:00.138Z,18.40
2023-05-01T14:13:32.034Z,17.16
2023-05-01T14:16:01.426Z,17.02
2023-05-01T14:18:30.980Z,16.52
2023-05-01T14:21:01.088Z,17.29
2023-05-01T14:23:30.656Z,17.20
2023-05-01T14:25:59.797Z,16.67
2023-05-01T14:28:31.292Z,16.89
2023-05-01T14:31:00.718Z,17.14
2023-05-01T14:33:30.522Z,16.80
2023-05-01T14:36:00.091Z,17.53
2023-05-01T14:38:38.748Z,17.10
2023-05-01T14:41:10.050Z,17.87
2023-05-01T14:43:43.305Z,18.87
2023-05-01T14:46:13.969Z,18.17
2023-05-01T14:48:43.803Z,17.89
2023-05-01T14:51:25.273Z,17.51
2023-05-01T14:53:54.953Z,17.25
2023-05-01T14:56:24.540Z,17.31
2023-05-01T14:58:55.710Z,17.07
2023-05-01T15:01:25.896Z,16.56
2023-05-01T15:03:55.656Z,16.64
2023-05-01T15:06:25.834Z,16.27
2023-05-01T15:08:57.558Z,16.60
2023-05-01T15:11:40.064Z,17.03
2023-05-01T15:14:10.853Z,17.35
2023-05-01T15:16:40.362Z,17.61
2023-05-01T15:19:09.582Z,17.99
2023-05-01T15:21:38.857Z,16.90
2023-05-01T15:24:08.473Z,18.47
2023-05-01T15:26:38.079Z,17.56
2023-05-01T15:29:07.345Z,17.36
2023-05-01T15:31:38.189Z,17.63
2023-05-01T15:34:08.496Z,17.70
2023-05-01T15:36:38.058Z,18.29
2023-05-01T15:39:11.786Z,18.12
2023-05-01T15:41:41.776Z,18.93
2023-05-01T15:44:11.775Z,22.03
2023-05-01T15:46:42.945Z,23.97
2023-05-01T15:49:12.362Z,24.92
2023-05-01T15:51:41.594Z,26.29
2023-05-01T15:54:11.819Z,26.75
2023-05-01T15:56:41.156Z,27.49
2023-05-01T15:59:10.511Z,27.60
2023-05-01T16:01:42.540Z,27.88
2023-05-01T16:04:12.842Z,27.94
2023-05-01T16:06:42.696Z,28.18
2023-05-01T16:09:12.805Z,28.40
2023-05-01T16:11:45.727Z,29.02
2023-05-01T16:14:16.876Z,28.60
2023-05-01T16:16:47.997Z,28.80
2023-05-01T16:19:18.061Z,29.57
2023-05-01T16:21:47.568Z,29.51
2023-05-01T16:24:17.819Z,30.57
2023-05-01T16:26:49.848Z,30.38
2023-05-01T16:29:20.569Z,31.01
2023-05-01T16:31:53.786Z,30.94
2023-05-01T16:34:26.342Z,31.60
2023-05-01T16:36:56.670Z,32.05
2023-05-01T16:39:26.380Z,32.43
2023-05-01T16:42:00.974Z,31.91
2023-05-01T16:44:32.758Z,31.67
2023-05-01T16:47:05.175Z,32.29
2023-05-01T16:49:34.537Z,32.39
2023-05-01T16:52:07.172Z,32.71
2023-05-01T16:54:36.837Z,33.05
2023-05-01T16:57:06.845Z,33.43
2023-05-01T16:59:37.520Z,33.34
2023-05-01T17:02:08.419Z,34.17
2023-05-01T17:04:38.205Z,34.54
2023-05-01T17:07:10.560Z,34.55
2023-05-01T17:09:43.140Z,34.92
2023-05-01T17:12:12.822Z,34.84
2023-05-01T17:14:54.307Z,35.13
2023-05-01T17:17:41.230Z,34.89
2023-05-01T17:20:18.142Z,36.34
2023-05-01T17:22:56.363Z,36.13
2023-05-01T17:25:32.332Z,36.20
2023-05-01T17:28:05.062Z,36.04
2023-05-01T17:30:37.204Z,35.83
2023-05-01T17:33:08.350Z,36.11
2023-05-01T17:35:37.945Z,36.38
2023-05-01T17:38:07.876Z,37.12
2023-05-01T17:40:37.661Z,37.89
2023-05-01T17:43:07.282Z,37.77
2023-05-01T17:45:36.747Z,37.54
2023-05-01T17:48:08.323Z,37.60
2023-05-01T17:50:38.161Z,37.86
2023-05-01T17:53:10.141Z,38.03
2023-05-01T17:55:41.369Z,37.90
2023-05-01T17:58:13.941Z,38.35
2023-05-01T18:00:44.207Z,38.88
2023-05-01T18:03:17.578Z,38.37
2023-05-01T18:05:48.923Z,38.88
2023-05-01T18:08:18.584Z,39.51
2023-05-01T18:10:54.102Z,39.47
2023-05-01T18:13:28.329Z,39.55
2023-05-01T18:16:01.452Z,39.96
2023-05-01T18:18:40.795Z,41.06
2023-05-01T18:21:10.972Z,42.78
2023-05-01T18:23:41.319Z,42.67
2023-05-01T18:26:11.576Z,43.42
2023-05-01T18:28:41.345Z,44.56
2023-05-01T18:31:12.034Z,45.64
2023-05-01T18:33:43.465Z,45.42
2023-05-01T18:36:13.709Z,46.31
2023-05-01T18:38:43.501Z,46.63
2023-05-01T18:41:16.005Z,47.23
2023-05-01T18:43:45.722Z,47.68
2023-05-01T18:46:16.061Z,47.87
2023-05-01T18:48:49.181Z,47.60
2023-05-01T18:51:20.327Z,48.73
2023-05-01T18:53:49.954Z,50.11
2023-05-01T18:56:19.649Z,50.90
2023-05-01T18:58:49.547Z,51.10
2023-05-01T19:01:33.714Z,51.62
2023-05-01T19:04:07.514Z,51.50
2023-05-01T19:06:41.003Z,52.28
2023-05-01T19:09:17.013Z,52.45
2023-05-01T19:11:49.061Z,51.80
2023-05-01T19:14:21.905Z,53.44
2023-05-01T19:16:54.894Z,55.49
2023-05-01T19:19:27.504Z,54.68
2023-05-01T19:21:58.132Z,53.87
2023-05-01T19:24:34.112Z,54.26
2023-05-01T19:27:04.514Z,53.32
2023-05-01T19:29:39.781Z,53.45
2023-05-01T19:32:13.524Z,53.95
2023-05-01T19:34:54.903Z,55.46
2023-05-01T19:37:28.635Z,58.04
2023-05-01T19:40:02.246Z,59.05
2023-05-01T19:42:35.621Z,63.02
2023-05-01T19:45:06.675Z,68.62
2023-05-01T19:47:37.803Z,69.95
2023-05-01T19:50:10.844Z,73.79
2023-05-01T19:52:43.609Z,80.17
2023-05-01T19:55:15.460Z,82.55
2023-05-01T19:57:46.977Z,85.05
2023-05-01T20:00:17.609Z,87.58
2023-05-01T20:02:47.021Z,92.04
2023-05-01T20:05:19.282Z,91.17
2023-05-01T20:07:52.734Z,90.66
2023-05-01T20:10:24.270Z,86.99
2023-05-01T20:12:53.483Z,91.38
2023-05-01T20:15:26.324Z,94.19
2023-05-01T20:17:56.013Z,94.30
2023-05-01T20:20:27.814Z,95.82
2023-05-01T20:23:10.747Z,94.88
2023-05-01T20:25:41.402Z,100.00
2023-05-01T20:28:13.065Z,100.00
2023-05-01T20:30:44.625Z,100.00
2023-05-01T20:33:15.882Z,100.00
2023-05-01T20:35:50.538Z,100.00
2023-05-01T20:38:34.384Z,100.00
2023-05-01T20:41:04.713Z,84.16
2023-05-01T20:43:37.459Z,100.00
2023-05-01T20:46:07.845Z,100.00
2023-05-01T20:48:38.722Z,100.00
2023-05-01T20:51:12.174Z,80.83
2023-05-01T20:53:49.327Z,100.00
2023-05-01T20:56:19.888Z,100.00
2023-05-01T20:58:53.476Z,100.00
2023-05-01T21:01:26.165Z,100.00
2023-05-01T21:03:56.317Z,100.00
2023-05-01T21:06:48.408Z,100.00
2023-05-01T21:09:20.781Z,100.00
2023-05-01T21:11:51.795Z,93.31
2023-05-01T21:14:23.740Z,100.00
2023-05-01T21:16:53.658Z,100.00
2023-05-01T21:19:24.254Z,100.00
2023-05-01T21:21:55.395Z,100.00
2023-05-01T21:24:25.705Z,98.46
2023-05-01T21:26:55.794Z,99.40
2023-05-01T21:29:27.689Z,100.00
2023-05-01T21:32:03.489Z,100.00
2023-05-01T21:34:33.303Z,100.00
2023-05-01T21:37:03.974Z,100.00
2023-05-01T21:39:33.557Z,100.00
2023-05-01T21:42:04.962Z,100.00
2023-05-01T21:44:34.431Z,100.00
2023-05-01T21:47:03.663Z,100.00
2023-05-01T21:49:33.076Z,100.00
2023-05-01T21:52:03.988Z,100.00
2023-05-01T21:54:34.836Z,100.00
2023-05-01T21:57:05.641Z,100.00
2023-05-01T21:59:37.471Z,100.00
2023-05-01T22:02:09.665Z,100.00
2023-05-01T22:04:40.089Z,100.00
2023-05-01T22:07:12.527Z,100.00
2023-05-01T22:09:52.290Z,100.00
2023-05-01T22:12:25.330Z,100.00
2023-05-01T22:14:55.219Z,100.00
2023-05-01T22:17:25.240Z,100.00
2023-05-01T22:19:54.957Z,100.00
2023-05-01T22:22:25.998Z,100.00
2023-05-01T22:24:55.842Z,100.00
2023-05-01T22:27:25.005Z,100.00
2023-05-01T22:29:54.138Z,100.00
2023-05-01T22:32:23.839Z,100.00
2023-05-01T22:34:53.166Z,100.00
2023-05-01T22:37:22.462Z,100.00
2023-05-01T22:39:52.983Z,100.00
2023-05-01T22:42:23.355Z,100.00
2023-05-01T22:44:54.884Z,100.00
2023-05-01T22:47:24.053Z,100.00
2023-05-01T22:49:53.429Z,100.00
2023-05-01T22:52:22.577Z,100.00
2023-05-01T22:54:53.121Z,100.00
2023-05-01T22:57:22.082Z,100.00
2023-05-01T22:59:51.298Z,100.00
2023-05-01T23:02:20.434Z,100.00
2023-05-01T23:04:49.567Z,100.00
2023-05-01T23:07:18.813Z,100.00
2023-05-01T23:09:47.932Z,100.00
2023-05-01T23:12:22.761Z,100.00
2023-05-01T23:14:52.089Z,100.00
2023-05-01T23:17:21.995Z,100.00
2023-05-01T23:19:51.769Z,100.00
2023-05-01T23:22:21.441Z,100.00
2023-05-01T23:24:50.947Z,100.00
2023-05-01T23:27:22.745Z,100.00
2023-05-01T23:29:56.582Z,100.00
2023-05-01T23:32:28.254Z,100.00
2023-05-01T23:35:02.301Z,100.00
2023-05-01T23:37:31.531Z,100.00
2023-05-01T23:40:02.300Z,100.00
2023-05-01T23:42:34.052Z,100.00
2023-05-01T23:45:03.674Z,100.00
2023-05-01T23:47:32.996Z,100.00
2023-05-01T23:50:02.811Z,100.00
2023-05-01T23:52:32.533Z,100.00
2023-05-01T23:55:01.684Z,100.00
2023-05-01T23:57:32.218Z,100.00
